Time;durP1;ratioP1;P1;durP2;ratioP2;P2;SDS_P1;SDS_P2;PMS_P1;PMS_P2;Temp;Humidity;BMP_temperature;BMP_pressure;BME280_temperature;BME280_humidity;BME280_pressure;Samples;Min_cycle;Max_cycle;Signal;HPM_P1;HPM_P2
2021/05/25 00:00:30;;;;;;;2.85;2.10;;;;;;;17.22;63.79;99578.84;5110844;28;20031;-75
2021/05/25 00:02:56;;;;;;;5.57;2.05;;;;;;;17.20;64.26;99566.72;5108585;28;20080;-76
2021/05/25 00:05:28;;;;;;;4.95;1.98;;;;;;;17.18;63.91;99575.16;5102750;28;20031;-80
2021/05/25 00:07:56;;;;;;;3.63;2.28;;;;;;;17.19;64.22;99570.56;5109628;28;20019;-80
2021/05/25 00:10:26;;;;;;;4.72;2.28;;;;;;;17.16;64.55;99571.94;5110067;28;20023;-78
2021/05/25 00:12:52;;;;;;;2.90;2.30;;;;;;;17.15;64.50;99569.56;5110101;28;20027;-77
2021/05/25 00:15:20;;;;;;;3.85;2.30;;;;;;;17.19;64.70;99567.88;5110267;28;20047;-78
2021/05/25 00:17:47;;;;;;;7.43;2.08;;;;;;;17.23;64.45;99572.31;5109489;28;20024;-78
2021/05/25 00:20:14;;;;;;;3.15;2.45;;;;;;;17.29;64.56;99568.38;5109002;28;20023;-78
2021/05/25 00:22:40;;;;;;;3.90;2.35;;;;;;;17.36;64.29;99570.66;5107683;28;20032;-81
2021/05/25 00:25:08;;;;;;;2.00;1.90;;;;;;;17.39;64.39;99569.25;5106200;28;20108;-77
2021/05/25 00:27:34;;;;;;;4.50;2.30;;;;;;;17.40;64.54;99571.63;5100060;28;20100;-78
2021/05/25 00:29:59;;;;;;;2.30;2.10;;;;;;;17.43;64.55;99573.75;5110469;28;20031;-78
2021/05/25 00:32:25;;;;;;;4.75;2.15;;;;;;;17.44;64.36;99569.94;5109347;28;20449;-77
2021/05/25 00:34:51;;;;;;;3.55;2.08;;;;;;;17.43;64.06;99562.13;5110158;28;20500;-76
2021/05/25 00:37:16;;;;;;;3.88;1.95;;;;;;;17.42;64.51;99563.25;5111430;28;20459;-76
2021/05/25 00:39:42;;;;;;;3.83;2.50;;;;;;;17.42;64.57;99563.25;5110578;28;20023;-77
2021/05/25 00:42:07;;;;;;;3.35;2.22;;;;;;;17.40;64.61;99568.16;5110294;28;20094;-77
2021/05/25 00:44:33;;;;;;;3.47;2.80;;;;;;;17.37;64.98;99558.75;5110616;28;20099;-77
2021/05/25 00:46:58;;;;;;;5.38;2.40;;;;;;;17.37;64.61;99550.66;5106409;28;20024;-77
2021/05/25 00:49:23;;;;;;;3.22;2.20;;;;;;;17.37;64.95;99552.53;5113275;28;20168;-77
2021/05/25 00:51:49;;;;;;;2.38;2.17;;;;;;;17.38;64.86;99556.84;5113304;28;20042;-77
2021/05/25 00:54:14;;;;;;;5.05;2.72;;;;;;;17.34;65.13;99559.34;5113450;28;20028;-77
2021/05/25 00:56:40;;;;;;;6.38;2.72;;;;;;;17.35;64.97;99558.25;5114036;28;20019;-77
2021/05/25 00:59:06;;;;;;;3.60;2.15;;;;;;;17.29;64.95;99559.50;5113694;28;20011;-78
2021/05/25 01:01:32;;;;;;;2.42;2.15;;;;;;;17.29;65.52;99562.19;5113212;28;20036;-77
2021/05/25 01:03:58;;;;;;;5.53;2.65;;;;;;;17.28;65.31;99555.19;5113766;28;20020;-79
2021/05/25 01:06:23;;;;;;;2.92;2.30;;;;;;;17.28;65.20;99556.00;5113496;28;20031;-77
2021/05/25 01:08:49;;;;;;;3.00;2.70;;;;;;;17.31;65.57;99567.28;5102674;28;20030;-79
2021/05/25 01:11:17;;;;;;;4.68;2.90;;;;;;;17.33;65.29;99570.50;5112604;28;20027;-79
2021/05/25 01:16:10;;;;;;;2.13;2.03;;;;;;;17.37;65.67;99569.56;5118082;28;20031;-79
2021/05/25 01:18:35;;;;;;;6.32;2.30;;;;;;;17.40;65.55;99574.34;5117599;28;20019;-79
2021/05/25 01:21:01;;;;;;;6.38;2.70;;;;;;;17.41;65.42;99575.94;5117898;28;20072;-78
2021/05/25 01:23:27;;;;;;;5.13;3.13;;;;;;;17.43;65.30;99573.75;5116804;28;20031;-83
2021/05/25 01:25:53;;;;;;;3.97;2.25;;;;;;;17.47;65.60;99567.69;5114287;28;20051;-81
2021/05/25 01:28:20;;;;;;;4.35;2.40;;;;;;;17.49;64.95;99562.78;5114086;28;20023;-80
2021/05/25 01:30:52;;;;;;;3.42;2.25;;;;;;;17.54;64.99;99562.66;5114614;28;20409;-80
2021/05/25 01:33:22;;;;;;;2.85;2.45;;;;;;;17.52;64.94;99559.47;5104384;28;20031;-79
2021/05/25 01:35:47;;;;;;;3.20;2.58;;;;;;;17.53;64.56;99563.78;5098354;28;20023;-80
2021/05/25 01:38:14;;;;;;;4.82;2.60;;;;;;;17.53;65.06;99558.38;5113370;28;20390;-79
2021/05/25 01:40:41;;;;;;;4.63;2.60;;;;;;;17.50;65.33;99558.97;5112302;28;20532;-78
2021/05/25 01:43:07;;;;;;;3.20;2.90;;;;;;;17.49;65.13;99549.28;5112641;28;20030;-78
2021/05/25 01:45:33;;;;;;;3.42;2.67;;;;;;;17.46;65.55;99555.31;5112679;28;20024;-78
2021/05/25 01:48:02;;;;;;;4.63;2.35;;;;;;;17.49;65.79;99558.19;5112658;28;20330;-78
2021/05/25 01:50:28;;;;;;;3.33;2.95;;;;;;;17.48;65.77;99548.47;5111945;28;20115;-77
2021/05/25 01:52:55;;;;;;;2.80;2.58;;;;;;;17.51;65.40;99549.75;5113018;28;20451;-77
2021/05/25 01:55:43;;;;;;;5.07;2.78;;;;;;;17.54;65.58;99543.72;5106837;28;20054;-78
2021/05/25 01:58:16;;;;;;;4.10;2.67;;;;;;;17.58;65.61;99545.50;5097563;28;20035;-78
2021/05/25 02:00:46;;;;;;;4.50;2.65;;;;;;;17.57;65.27;99543.91;5095771;28;20390;-81
2021/05/25 02:03:12;;;;;;;3.55;2.53;;;;;;;17.55;65.00;99531.81;5100187;28;20027;-77
2021/05/25 02:05:38;;;;;;;6.72;3.13;;;;;;;17.50;65.61;99531.94;5112496;28;20498;-77
2021/05/25 02:08:05;;;;;;;5.28;2.72;;;;;;;17.45;65.73;99535.56;5112067;28;20027;-77
2021/05/25 02:10:39;;;;;;;2.75;2.38;;;;;;;17.48;65.79;99542.25;5112600;28;20375;-77
2021/05/25 02:13:10;;;;;;;3.95;2.78;;;;;;;17.45;66.09;99538.28;5112967;27;20429;-77
2021/05/25 02:15:36;;;;;;;4.22;3.15;;;;;;;17.48;66.08;99534.16;5111976;28;20427;-76
2021/05/25 02:18:14;;;;;;;2.35;2.15;;;;;;;17.51;65.77;99539.75;5111697;28;20035;-77
2021/05/25 02:20:42;;;;;;;4.40;3.45;;;;;;;17.51;65.80;99536.25;5113092;28;20085;-76
2021/05/25 02:23:07;;;;;;;5.68;2.90;;;;;;;17.51;65.63;99528.13;5113365;28;20034;-78
2021/05/25 02:25:33;;;;;;;4.65;3.42;;;;;;;17.53;65.59;99539.44;5111779;28;20024;-78
2021/05/25 02:27:59;;;;;;;3.78;3.22;;;;;;;17.51;65.64;99534.31;5108056;28;20049;-78
2021/05/25 02:30:25;;;;;;;3.92;3.53;;;;;;;17.47;65.43;99529.84;5111188;28;20031;-77
2021/05/25 02:32:50;;;;;;;4.88;3.70;;;;;;;17.46;65.73;99523.66;5111893;28;20479;-78
2021/05/25 02:35:16;;;;;;;4.85;3.25;;;;;;;17.44;65.92;99536.69;5111762;28;20535;-78
2021/05/25 02:37:41;;;;;;;5.60;3.35;;;;;;;17.42;65.84;99539.69;5111495;28;20019;-78
2021/05/25 02:40:08;;;;;;;5.32;3.95;;;;;;;17.38;66.06;99530.63;5111599;28;20069;-78
2021/05/25 02:42:34;;;;;;;7.75;3.95;;;;;;;17.37;66.42;99542.53;5111926;28;20015;-78
2021/05/25 02:44:59;;;;;;;8.48;3.53;;;;;;;17.35;66.45;99531.22;5110121;28;20084;-78
2021/05/25 02:47:25;;;;;;;4.10;3.70;;;;;;;17.36;66.49;99538.22;5111054;28;20466;-78
2021/05/25 02:49:50;;;;;;;4.82;3.42;;;;;;;17.39;66.57;99534.09;5111026;28;20123;-79
2021/05/25 02:52:16;;;;;;;7.03;3.92;;;;;;;17.40;66.41;99536.50;5108589;28;20019;-80
2021/05/25 02:54:41;;;;;;;9.02;4.22;;;;;;;17.40;66.41;99531.09;5110895;28;20032;-80
2021/05/25 02:57:07;;;;;;;5.38;4.20;;;;;;;17.37;66.54;99533.59;5110503;28;20047;-79
2021/05/25 02:59:33;;;;;;;5.57;3.95;;;;;;;17.35;66.81;99533.94;5111279;28;20081;-79
2021/05/25 03:01:59;;;;;;;5.85;4.80;;;;;;;17.36;66.79;99535.53;5111076;28;20082;-79
2021/05/25 03:04:24;;;;;;;6.82;3.97;;;;;;;17.35;67.11;99539.34;5110625;28;20043;-80
2021/05/25 03:06:50;;;;;;;5.05;4.07;;;;;;;17.41;66.75;99537.31;5110785;28;20106;-79
2021/05/25 03:09:16;;;;;;;6.63;4.00;;;;;;;17.47;66.21;99540.66;5110330;28;20027;-78
2021/05/25 03:11:41;;;;;;;10.07;3.83;;;;;;;17.53;65.58;99534.03;5110213;28;20092;-77
2021/05/25 03:14:07;;;;;;;7.07;4.55;;;;;;;17.62;65.35;99536.78;5110614;28;20466;-80
2021/05/25 03:16:32;;;;;;;5.65;4.07;;;;;;;17.74;64.90;99545.91;5110600;28;20046;-78
2021/05/25 03:18:58;;;;;;;5.30;4.00;;;;;;;17.86;64.28;99552.66;5110819;28;20382;-80
2021/05/25 03:21:23;;;;;;;4.65;4.18;;;;;;;17.93;63.89;99555.66;5110641;28;20066;-77
2021/05/25 03:23:49;;;;;;;6.20;4.40;;;;;;;18.05;63.21;99560.53;5111962;28;20078;-79
2021/05/25 03:26:14;;;;;;;6.78;4.50;;;;;;;18.16;63.03;99559.16;5107521;28;20048;-78
2021/05/25 03:28:40;;;;;;;5.15;4.65;;;;;;;18.23;62.74;99554.03;5090666;28;20096;-78
2021/05/25 03:31:05;;;;;;;6.53;5.20;;;;;;;18.37;62.50;99547.72;5092837;28;20076;-77
2021/05/25 03:33:31;;;;;;;9.60;4.93;;;;;;;18.55;62.33;99548.53;5110069;28;20024;-78
2021/05/25 03:35:57;;;;;;;9.35;6.32;;;;;;;18.75;61.86;99551.75;5110404;28;20030;-78
2021/05/25 03:38:22;;;;;;;9.68;6.30;;;;;;;19.02;61.42;99548.75;5109946;28;20418;-82
2021/05/25 03:40:48;;;;;;;6.88;5.93;;;;;;;19.23;60.73;99539.94;5109961;28;20184;-78
2021/05/25 03:43:13;;;;;;;11.55;6.72;;;;;;;19.48;60.32;99535.59;5110069;28;20093;-78
2021/05/25 03:45:39;;;;;;;7.50;5.40;;;;;;;19.76;58.73;99542.50;5110217;28;20027;-79
2021/05/25 03:48:05;;;;;;;6.80;5.85;;;;;;;19.91;58.50;99535.75;5109993;28;20024;-80
2021/05/25 03:50:30;;;;;;;10.57;8.18;;;;;;;20.18;58.18;99536.44;5095865;28;20024;-78
2021/05/25 03:52:57;;;;;;;7.60;5.85;;;;;;;20.48;57.39;99537.19;5097999;28;20064;-79
2021/05/25 04:00:45;;;;;;;9.57;6.15;;;;;;;21.43;54.85;99534.81;5100443;28;20027;-78
2021/05/25 04:03:10;;;;;;;7.03;5.40;;;;;;;21.55;54.50;99535.94;5109364;28;20079;-79
2021/05/25 04:05:36;;;;;;;7.43;5.30;;;;;;;21.81;54.01;99548.47;5110163;28;20019;-79
2021/05/25 04:08:01;;;;;;;6.47;4.88;;;;;;;21.94;53.75;99552.78;5103982;28;20467;-85
2021/05/25 04:10:27;;;;;;;8.85;6.45;;;;;;;21.99;52.72;99558.00;5109193;28;20019;-81
2021/05/25 04:12:52;;;;;;;14.57;7.75;;;;;;;22.01;53.34;99558.47;5110196;28;20471;-78
2021/05/25 04:15:19;;;;;;;9.77;7.05;;;;;;;22.14;53.68;99555.75;5108674;28;20435;-81
2021/05/25 04:17:44;;;;;;;11.05;7.05;;;;;;;22.19;51.92;99558.22;5105362;28;20023;-80
2021/05/25 04:20:11;;;;;;;10.38;7.15;;;;;;;22.13;52.19;99552.25;5108703;28;20110;-79
2021/05/25 04:22:38;;;;;;;9.38;6.57;;;;;;;22.15;51.98;99555.41;5104436;28;20054;-81
2021/05/25 04:25:05;;;;;;;14.10;6.82;;;;;;;22.28;52.54;99560.84;5112644;28;20106;-80
2021/05/25 04:27:30;;;;;;;10.52;8.43;;;;;;;22.45;51.96;99557.09;5103788;28;20043;-79
2021/05/25 04:29:55;;;;;;;15.05;9.50;;;;;;;22.50;51.54;99557.66;5114028;28;20073;-81
2021/05/25 04:32:21;;;;;;;13.57;7.60;;;;;;;22.70;51.61;99561.38;5113213;28;20031;-78
2021/05/25 04:34:46;;;;;;;8.70;7.38;;;;;;;23.01;50.76;99559.13;5113824;28;20019;-78
2021/05/25 04:37:12;;;;;;;9.13;6.88;;;;;;;23.18;49.45;99547.13;5115554;28;20421;-78
2021/05/25 04:39:37;;;;;;;6.78;5.88;;;;;;;23.21;49.08;99549.16;5115672;28;20490;-77
2021/05/25 04:42:03;;;;;;;9.15;5.72;;;;;;;23.33;49.07;99567.41;5115333;28;20023;-78
2021/05/25 04:44:28;;;;;;;9.35;5.90;;;;;;;23.56;49.34;99575.81;5114304;28;20019;-78
2021/05/25 04:46:54;;;;;;;11.45;7.75;;;;;;;23.85;48.49;99571.03;5113565;28;20416;-79
2021/05/25 04:49:19;;;;;;;10.43;6.00;;;;;;;24.03;48.20;99571.50;5114037;28;20024;-78
2021/05/25 04:51:45;;;;;;;9.68;5.30;;;;;;;24.04;47.40;99573.09;5115088;28;20015;-78
2021/05/25 04:54:10;;;;;;;7.43;5.18;;;;;;;24.08;46.60;99568.53;5114004;28;20118;-78
2021/05/25 04:56:36;;;;;;;10.15;4.72;;;;;;;24.16;46.92;99565.94;5115485;28;20102;-78
2021/05/25 04:59:02;;;;;;;5.20;4.70;;;;;;;24.10;46.33;99566.22;5113455;28;20111;-78
2021/05/25 05:01:30;;;;;;;9.60;5.82;;;;;;;24.10;46.32;99560.75;5115086;28;20027;-78
2021/05/25 05:03:55;;;;;;;5.75;4.47;;;;;;;24.09;46.22;99561.13;5114938;27;20028;-79
2021/05/25 05:06:21;;;;;;;7.82;5.10;;;;;;;24.17;46.34;99559.31;5113789;28;20024;-77
2021/05/25 05:08:47;;;;;;;11.20;7.78;;;;;;;24.09;46.68;99561.91;5113773;28;20019;-78
2021/05/25 05:11:12;;;;;;;8.52;5.00;;;;;;;24.31;46.44;99565.13;5114976;27;20476;-77
2021/05/25 05:13:37;;;;;;;8.27;6.70;;;;;;;24.37;45.96;99565.66;5113588;28;20462;-77
2021/05/25 05:16:03;;;;;;;7.32;5.07;;;;;;;24.33;46.07;99562.84;5114320;28;20034;-78
2021/05/25 05:18:29;;;;;;;6.15;5.55;;;;;;;24.40;46.19;99568.47;5115001;28;20020;-78
2021/05/25 05:20:54;;;;;;;9.38;5.10;;;;;;;24.43;45.98;99565.00;5113340;28;20031;-77
2021/05/25 05:23:19;;;;;;;5.65;4.72;;;;;;;24.38;46.29;99568.03;5113448;28;20031;-78
2021/05/25 05:25:45;;;;;;;7.15;4.65;;;;;;;24.53;46.69;99563.66;5113045;28;20470;-78
2021/05/25 05:28:10;;;;;;;7.18;4.28;;;;;;;24.83;45.94;99570.53;5114500;28;20020;-78
2021/05/25 05:30:36;;;;;;;7.63;3.97;;;;;;;25.14;44.96;99566.09;5114288;28;20031;-78
2021/05/25 05:33:02;;;;;;;3.95;3.53;;;;;;;25.28;44.01;99563.63;5113065;28;20019;-78
2021/05/25 05:35:27;;;;;;;5.38;4.18;;;;;;;25.35;44.57;99568.41;5112523;28;20057;-79
2021/05/25 05:37:53;;;;;;;6.32;3.28;;;;;;;25.44;44.00;99569.03;5112847;28;20016;-77
2021/05/25 05:40:18;;;;;;;4.38;3.75;;;;;;;25.68;44.05;99558.84;5112981;28;20028;-77
2021/05/25 05:42:43;;;;;;;5.47;3.50;;;;;;;25.90;43.33;99554.50;5114263;28;20018;-77
2021/05/25 05:45:10;;;;;;;8.38;4.28;;;;;;;25.93;43.26;99561.19;5112750;28;20870;-77
2021/05/25 05:47:35;;;;;;;7.22;3.67;;;;;;;25.98;42.80;99560.91;5112941;28;20069;-78
2021/05/25 05:50:09;;;;;;;7.07;3.95;;;;;;;25.93;42.42;99558.44;5113530;28;20428;-78
2021/05/25 05:52:36;;;;;;;6.90;3.72;;;;;;;25.80;42.80;99566.09;5112973;28;20034;-78
2021/05/25 05:55:01;;;;;;;7.95;3.58;;;;;;;25.96;42.36;99572.22;5113836;28;20031;-78
2021/05/25 05:57:27;;;;;;;7.55;3.67;;;;;;;25.86;41.82;99578.31;5114439;28;20019;-78
2021/05/25 05:59:52;;;;;;;4.85;3.38;;;;;;;25.88;41.89;99565.84;5112531;28;20114;-78
2021/05/25 06:02:18;;;;;;;7.20;3.83;;;;;;;25.94;42.22;99560.84;5114348;28;20021;-78
2021/05/25 06:04:43;;;;;;;7.60;3.85;;;;;;;26.13;42.59;99567.41;5113977;28;20382;-77
2021/05/25 06:07:09;;;;;;;5.47;3.72;;;;;;;26.23;42.99;99569.50;5112263;28;20058;-78
2021/05/25 06:09:37;;;;;;;6.63;3.22;;;;;;;26.28;41.33;99562.94;5112367;28;20016;-78
2021/05/25 06:12:03;;;;;;;5.82;3.60;;;;;;;26.26;41.32;99568.00;5112106;28;20059;-78
2021/05/25 06:14:28;;;;;;;5.25;3.10;;;;;;;26.30;41.72;99560.63;5112019;28;20058;-78
2021/05/25 06:16:53;;;;;;;4.63;2.75;;;;;;;26.38;41.50;99559.56;5113391;28;20019;-78
2021/05/25 06:19:19;;;;;;;6.57;3.65;;;;;;;26.28;41.45;99561.00;5112190;28;20401;-78
2021/05/25 06:21:45;;;;;;;3.78;3.38;;;;;;;26.25;41.57;99552.72;5113624;28;20437;-78
2021/05/25 06:24:13;;;;;;;12.77;3.70;;;;;;;26.28;41.36;99549.22;5112044;28;20089;-78
2021/05/25 06:26:38;;;;;;;5.82;3.90;;;;;;;26.26;41.18;99549.59;5113598;28;20047;-78
2021/05/25 06:29:04;;;;;;;3.90;3.42;;;;;;;26.11;40.20;99554.09;5111820;28;20020;-78
2021/05/25 06:31:30;;;;;;;7.70;3.92;;;;;;;25.96;41.28;99541.28;5113062;28;20571;-78
2021/05/25 06:33:55;;;;;;;3.90;3.42;;;;;;;25.79;42.01;99543.38;5111795;28;20027;-78
2021/05/25 06:36:20;;;;;;;5.80;2.97;;;;;;;25.68;42.29;99545.97;5111990;28;20046;-78
2021/05/25 06:38:46;;;;;;;4.85;2.63;;;;;;;25.62;42.96;99538.41;5111741;28;20455;-78
2021/05/25 06:41:11;;;;;;;4.30;2.47;;;;;;;25.54;42.71;99542.97;5111284;28;20024;-78
2021/05/25 06:43:37;;;;;;;6.40;2.95;;;;;;;25.48;42.58;99537.00;5111909;28;20023;-78
2021/05/25 06:46:02;;;;;;;2.85;2.50;;;;;;;25.32;42.86;99531.63;5110913;28;20122;-78
2021/05/25 06:48:28;;;;;;;4.07;2.45;;;;;;;25.15;42.84;99540.31;5111863;28;20541;-78
2021/05/25 06:50:53;;;;;;;3.65;2.13;;;;;;;24.93;43.32;99526.22;5112969;28;20152;-79
2021/05/25 06:53:19;;;;;;;2.50;2.25;;;;;;;24.78;43.59;99531.41;5111723;28;20015;-79
2021/05/25 06:55:44;;;;;;;2.33;2.13;;;;;;;24.70;44.30;99534.34;5111722;28;20122;-79
2021/05/25 06:58:10;;;;;;;3.20;2.38;;;;;;;24.62;43.57;99528.69;5111429;28;20374;-79
2021/05/25 07:00:35;;;;;;;2.92;2.40;;;;;;;24.59;44.43;99521.19;5111713;28;20394;-79
2021/05/25 07:03:00;;;;;;;4.75;2.35;;;;;;;24.65;44.19;99524.44;5112525;28;20020;-79
2021/05/25 07:05:26;;;;;;;3.97;2.15;;;;;;;24.59;44.14;99520.41;5112813;28;20522;-79
2021/05/25 07:07:51;;;;;;;3.20;2.20;;;;;;;24.51;43.51;99524.97;5111396;28;20076;-79
2021/05/25 07:10:17;;;;;;;6.43;2.40;;;;;;;24.45;43.63;99518.97;5112249;28;20360;-79
2021/05/25 07:12:42;;;;;;;4.90;2.63;;;;;;;24.45;43.18;99518.19;5111454;28;20058;-79
2021/05/25 07:15:09;;;;;;;3.22;2.53;;;;;;;24.31;43.38;99521.41;5112700;28;20500;-79
2021/05/25 07:17:34;;;;;;;2.28;2.08;;;;;;;24.23;43.01;99523.19;5115174;28;20016;-79
2021/05/25 07:20:00;;;;;;;5.28;4.78;;;;;;;24.26;43.92;99517.00;5114634;28;20031;-79
2021/05/25 07:22:25;;;;;;;4.72;2.33;;;;;;;24.39;43.45;99516.88;5114054;28;20015;-79
2021/05/25 07:24:51;;;;;;;3.92;2.28;;;;;;;24.25;41.84;99525.56;5114668;28;20084;-79
2021/05/25 07:27:17;;;;;;;5.18;3.38;;;;;;;24.18;43.86;99528.13;5114705;28;20043;-79
2021/05/25 07:29:43;;;;;;;2.83;2.50;;;;;;;24.12;43.87;99531.13;5113425;28;20118;-79
2021/05/25 07:32:08;;;;;;;4.72;2.28;;;;;;;24.09;43.85;99529.09;5111937;28;20505;-80
2021/05/25 07:34:34;;;;;;;5.82;2.40;;;;;;;24.17;43.72;99521.06;5111508;28;20374;-79
2021/05/25 07:36:59;;;;;;;3.72;2.53;;;;;;;24.25;43.56;99517.34;5111064;28;20062;-79
2021/05/25 07:39:24;;;;;;;2.92;1.90;;;;;;;24.35;42.97;99535.13;5112226;28;20015;-80
2021/05/25 07:41:50;;;;;;;2.95;2.00;;;;;;;24.36;42.78;99532.03;5111033;28;20165;-78
2021/05/25 07:44:15;;;;;;;6.38;2.88;;;;;;;24.49;42.57;99529.22;5110844;28;20043;-79
2021/05/25 07:46:41;;;;;;;3.63;2.17;;;;;;;24.61;43.52;99527.13;5111047;28;20066;-78
2021/05/25 07:49:07;;;;;;;3.40;2.10;;;;;;;24.71;42.99;99541.41;5110822;28;20020;-77
2021/05/25 07:51:33;;;;;;;4.00;2.42;;;;;;;24.60;42.82;99538.41;5112439;28;20398;-79
2021/05/25 07:53:58;;;;;;;3.63;2.53;;;;;;;24.51;43.26;99535.09;5110447;28;20023;-78
2021/05/25 07:56:25;;;;;;;5.43;2.42;;;;;;;24.53;42.97;99530.06;5110349;28;20019;-79
2021/05/25 07:58:50;;;;;;;2.25;2.00;;;;;;;24.57;44.00;99529.00;5112142;28;20024;-79
2021/05/25 08:01:16;;;;;;;3.65;2.78;;;;;;;24.57;43.08;99520.78;5111622;28;20535;-79
2021/05/25 08:03:41;;;;;;;2.72;2.53;;;;;;;24.59;43.24;99528.63;5111678;28;20472;-79
2021/05/25 08:06:07;;;;;;;2.20;2.10;;;;;;;24.54;42.32;99516.03;5110225;28;20463;-79
2021/05/25 08:08:32;;;;;;;1.80;1.63;;;;;;;24.49;42.65;99513.59;5110403;28;20118;-79
2021/05/25 08:10:59;;;;;;;2.13;1.90;;;;;;;24.40;42.59;99513.78;5110165;28;20026;-79
2021/05/25 08:13:25;;;;;;;3.17;2.40;;;;;;;24.34;42.55;99501.56;5112018;28;20076;-79
2021/05/25 08:15:52;;;;;;;2.38;2.17;;;;;;;24.25;42.99;99511.91;5110338;28;20041;-79
2021/05/25 08:20:44;;;;;;;3.33;1.98;;;;;;;24.13;43.76;99507.34;5111665;28;20477;-79
2021/05/25 08:23:12;;;;;;;3.22;2.33;;;;;;;24.11;43.96;99498.72;5110424;28;20026;-79
2021/05/25 08:25:40;;;;;;;2.80;2.60;;;;;;;24.10;44.09;99500.63;5110077;28;20055;-79
2021/05/25 08:28:07;;;;;;;4.43;2.58;;;;;;;24.12;44.31;99501.09;5111279;28;20031;-79
2021/05/25 08:30:36;;;;;;;6.72;2.55;;;;;;;24.15;44.71;99505.03;5111284;28;20470;-79
2021/05/25 08:33:02;;;;;;;3.15;2.20;;;;;;;24.13;45.09;99496.41;5111258;28;20046;-79
2021/05/25 08:35:35;;;;;;;4.05;2.42;;;;;;;24.10;45.79;99480.75;5111159;28;20447;-79
2021/05/25 08:38:01;;;;;;;2.70;2.45;;;;;;;24.20;45.50;99490.31;5111009;28;20464;-77
2021/05/25 08:40:28;;;;;;;2.80;2.00;;;;;;;24.23;45.49;99486.84;5111381;28;20030;-80
2021/05/25 08:42:55;;;;;;;3.73;2.00;;;;;;;24.34;45.72;99471.50;5111151;28;20020;-80
2021/05/25 08:45:21;;;;;;;2.38;2.00;;;;;;;24.49;46.13;99471.78;5109847;28;20092;-80
2021/05/25 08:47:51;;;;;;;3.90;2.60;;;;;;;24.64;45.55;99478.34;5111643;28;20023;-80
2021/05/25 08:50:19;;;;;;;3.35;1.90;;;;;;;24.65;44.51;99469.75;5109741;28;20363;-79
2021/05/25 08:52:44;;;;;;;4.43;2.13;;;;;;;24.69;44.49;99478.06;5109997;28;20371;-79
2021/05/25 08:55:11;;;;;;;3.38;2.15;;;;;;;24.62;44.69;99468.53;5109674;28;20088;-79
2021/05/25 08:57:37;;;;;;;2.80;2.58;;;;;;;24.61;44.19;99471.66;5109884;28;20418;-79
2021/05/25 09:00:06;;;;;;;2.40;2.20;;;;;;;24.59;44.74;99466.50;5109774;28;20030;-80
2021/05/25 09:02:31;;;;;;;2.75;2.30;;;;;;;24.67;45.92;99456.56;5109754;28;20028;-79
2021/05/25 09:04:58;;;;;;;2.60;2.35;;;;;;;24.74;44.82;99458.63;5109964;28;20081;-79
2021/05/25 09:07:42;;;;;;;1.85;1.65;;;;;;;24.84;44.40;99452.59;5111278;28;20432;-79
2021/05/25 09:10:09;;;;;;;2.28;1.80;;;;;;;24.94;44.68;99453.94;5111431;28;20402;-79
2021/05/25 09:12:47;;;;;;;2.58;2.38;;;;;;;25.03;44.14;99457.22;5113662;28;20372;-79
2021/05/25 09:15:35;;;;;;;2.28;2.08;;;;;;;25.10;44.01;99453.81;5113391;28;20026;-79
2021/05/25 09:18:06;;;;;;;2.30;2.10;;;;;;;25.20;44.40;99442.25;5114486;28;20024;-80
2021/05/25 09:20:38;;;;;;;3.88;2.15;;;;;;;25.23;43.62;99438.00;5115100;28;20031;-79
2021/05/25 09:23:03;;;;;;;2.42;2.22;;;;;;;25.25;43.04;99441.97;5113233;28;20050;-79
2021/05/25 09:25:30;;;;;;;2.40;2.08;;;;;;;25.18;43.70;99441.84;5113321;28;20563;-79
2021/05/25 09:28:10;;;;;;;2.58;2.30;;;;;;;25.22;42.97;99439.94;5114446;28;20379;-78
2021/05/25 09:30:36;;;;;;;2.13;2.03;;;;;;;25.19;42.26;99443.41;5114531;28;20031;-79
2021/05/25 09:33:07;;;;;;;3.42;2.08;;;;;;;25.22;42.44;99433.69;5113249;28;20023;-79
2021/05/25 09:35:39;;;;;;;1.98;1.88;;;;;;;25.13;42.45;99430.41;5114135;28;20707;-79
2021/05/25 09:38:10;;;;;;;4.07;2.38;;;;;;;25.17;42.97;99420.28;5112969;28;20080;-79
2021/05/25 09:40:38;;;;;;;2.58;2.38;;;;;;;25.22;42.52;99426.25;5113071;28;20114;-79
2021/05/25 09:43:16;;;;;;;4.05;2.22;;;;;;;25.32;42.89;99424.09;5114326;27;20024;-80
2021/05/25 09:46:00;;;;;;;3.20;2.50;;;;;;;25.46;42.89;99429.00;5114593;28;20043;-78
2021/05/25 09:48:28;;;;;;;2.42;2.22;;;;;;;25.54;42.51;99428.75;5112687;28;20466;-78
2021/05/25 09:50:55;;;;;;;3.65;2.10;;;;;;;25.60;42.26;99426.50;5113904;28;20444;-78
2021/05/25 09:53:23;;;;;;;2.35;2.15;;;;;;;25.57;42.05;99430.75;5112609;28;20427;-78
2021/05/25 09:55:51;;;;;;;2.15;2.00;;;;;;;25.57;42.61;99422.53;5112559;28;20070;-78
2021/05/25 09:58:18;;;;;;;2.97;2.78;;;;;;;25.59;43.10;99416.69;5112449;28;20496;-80
2021/05/25 10:00:46;;;;;;;2.10;2.00;;;;;;;25.63;42.57;99412.03;5112756;28;20028;-79
2021/05/25 10:03:20;;;;;;;2.38;1.90;;;;;;;25.66;42.30;99410.50;5112447;28;20428;-80
2021/05/25 10:05:48;;;;;;;2.75;1.92;;;;;;;25.73;42.40;99416.91;5112560;28;20364;-80
2021/05/25 10:08:16;;;;;;;;;;;;;;;25.72;42.04;99412.59;5112797;28;20012;-79
2021/05/25 10:10:42;;;;;;;;;;;;;;;25.68;42.86;99411.75;5113892;28;20064;-79
2021/05/25 10:13:09;;;;;;;3.40;2.28;;;;;;;25.67;43.00;99390.19;5113257;28;20006;-80
2021/05/25 10:15:34;;;;;;;4.07;2.30;;;;;;;25.75;43.03;99397.34;5113444;28;20459;-79
2021/05/25 10:20:28;;;;;;;4.43;2.83;;;;;;;25.86;42.54;99384.59;5112871;28;20027;-78
2021/05/25 10:22:53;;;;;;;;;;;;;;;25.93;42.48;99383.91;5111981;28;20478;-77
2021/05/25 10:25:21;;;;;;;2.30;2.10;;;;;;;25.95;41.84;99384.34;5111660;28;19918;-78
2021/05/25 10:27:47;;;;;;;1.88;1.77;;;;;;;25.97;42.02;99382.00;5112179;28;20011;-80
2021/05/25 10:30:21;;;;;;;3.17;1.98;;;;;;;26.02;42.39;99378.94;5111761;28;20092;-79
2021/05/25 10:32:48;;;;;;;3.08;2.03;;;;;;;26.01;42.19;99374.63;5112093;28;20034;-78
2021/05/25 10:35:18;;;;;;;2.25;1.98;;;;;;;26.03;42.37;99377.75;5111810;28;20029;-78
2021/05/25 10:38:05;;;;;;;2.20;2.10;;;;;;;26.03;42.75;99369.53;5111872;28;20076;-78
2021/05/25 10:41:01;;;;;;;2.17;2.03;;;;;;;26.06;41.94;99359.78;5111852;28;20024;-78
2021/05/25 10:43:30;;;;;;;3.65;2.40;;;;;;;26.11;41.72;99361.44;5111041;28;20093;-80
2021/05/25 10:46:14;;;;;;;2.30;2.10;;;;;;;26.16;41.49;99358.38;5111802;28;20080;-77
2021/05/25 10:49:11;;;;;;;2.45;1.90;;;;;;;26.21;41.63;99356.06;5111719;28;20060;-77
2021/05/25 10:52:03;;;;;;;2.80;1.98;;;;;;;26.25;41.89;99353.38;5112767;28;20102;-79
2021/05/25 10:54:36;;;;;;;1.70;1.60;;;;;;;26.33;41.60;99346.81;5111350;28;20012;-80
2021/05/25 10:57:28;;;;;;;2.50;1.65;;;;;;;26.35;40.95;99349.97;5111554;28;20062;-78
2021/05/25 11:00:13;;;;;;;6.43;2.05;;;;;;;26.36;41.63;99346.06;5112676;28;20153;-79
2021/05/25 11:02:43;;;;;;;4.32;2.38;;;;;;;26.42;41.96;99338.28;5111411;28;20055;-79
2021/05/25 11:05:51;;;;;;;3.88;1.92;;;;;;;26.50;41.53;99341.88;5111200;28;20022;-79
2021/05/25 11:08:20;;;;;;;2.50;2.30;;;;;;;26.50;41.60;99325.44;5101947;28;20046;-78
2021/05/25 11:10:57;;;;;;;4.13;1.90;;;;;;;26.43;41.54;99333.59;5112201;28;20044;-77
2021/05/25 11:13:28;;;;;;;1.88;1.65;;;;;;;26.47;41.15;99335.19;5110893;28;20487;-78
2021/05/25 11:18:56;;;;;;;2.75;1.60;;;;;;;26.43;41.10;99337.13;5112507;28;20108;-79
2021/05/25 11:24:42;;;;;;;2.38;1.50;;;;;;;26.41;40.73;99314.00;5112427;28;20036;-78
2021/05/25 11:27:29;;;;;;;1.42;1.33;;;;;;;26.47;42.15;99309.75;5110969;28;20100;-78
2021/05/25 11:30:06;;;;;;;3.17;1.83;;;;;;;26.40;41.54;99318.66;5111079;28;20377;-77
2021/05/25 11:32:48;;;;;;;2.08;1.98;;;;;;;26.39;41.27;99314.38;5111540;28;20051;-78
2021/05/25 11:35:22;;;;;;;3.28;1.95;;;;;;;26.36;41.79;99313.16;5111752;28;20126;-78
2021/05/25 11:37:53;;;;;;;2.05;1.67;;;;;;;26.30;41.79;99313.88;5111005;28;20028;-79
2021/05/25 11:40:38;;;;;;;1.95;1.70;;;;;;;26.32;41.53;99309.59;5110727;28;20024;-78
2021/05/25 11:43:04;;;;;;;2.15;1.80;;;;;;;26.33;40.42;99291.97;5111095;28;20381;-78
2021/05/25 11:45:30;;;;;;;2.63;1.80;;;;;;;26.39;40.61;99291.63;5110707;28;20026;-78
2021/05/25 11:48:02;;;;;;;2.00;1.83;;;;;;;26.47;40.46;99307.78;5110971;28;20476;-78
2021/05/25 11:50:29;;;;;;;2.22;2.03;;;;;;;26.49;40.16;99293.72;5110418;28;20042;-78
2021/05/25 11:52:56;;;;;;;2.07;1.87;;;;;;;26.51;40.20;99300.38;5110869;28;20030;-78
2021/05/25 11:55:23;;;;;;;3.20;2.13;;;;;;;26.56;39.60;99292.97;5111923;28;20301;-78